Time;durP1;ratioP1;P1;durP2;ratioP2;P2;SDS_P1;SDS_P2;PMS_P1;PMS_P2;Temp;Humidity;BMP_temperature;BMP_pressure;BME280_temperature;BME280_humidity;BME280_pressure;Samples;Min_cycle;Max_cycle;Signal;HPM_P1;HPM_P2
2022/01/22 00:00:51;;;;;;;17.45;2.92;;;7.30;99.90;;;;;;4999942;28;20516;-63
2022/01/22 00:03:17;;;;;;;26.67;3.25;;;7.30;99.90;;;;;;4999065;28;20052;-63
2022/01/22 00:05:43;;;;;;;21.45;3.58;;;7.30;99.90;;;;;;4991854;28;20038;-63
2022/01/22 00:08:09;;;;;;;18.20;2.78;;;7.40;99.90;;;;;;4994636;28;20526;-64
2022/01/22 00:10:37;;;;;;;15.55;3.00;;;7.40;99.90;;;;;;4986872;28;20493;-63
2022/01/22 00:15:30;;;;;;;21.65;3.70;;;7.30;99.90;;;;;;5022019;27;20677;-63
2022/01/22 00:17:56;;;;;;;20.27;3.17;;;7.30;99.90;;;;;;4997184;28;20045;-65
2022/01/22 00:20:24;;;;;;;16.33;3.65;;;7.30;99.90;;;;;;4976920;28;20071;-65
2022/01/22 00:22:51;;;;;;;20.35;3.72;;;7.30;99.90;;;;;;4996145;28;20050;-63
2022/01/22 00:25:19;;;;;;;21.35;4.30;;;7.30;99.90;;;;;;4996479;28;20062;-63
2022/01/22 00:27:46;;;;;;;23.95;3.88;;;7.30;99.90;;;;;;4979602;28;20416;-64
2022/01/22 00:30:18;;;;;;;16.48;2.60;;;7.30;99.90;;;;;;4990841;28;20129;-63
2022/01/22 00:32:44;;;;;;;16.85;2.67;;;7.30;99.90;;;;;;4977222;28;20046;-63
2022/01/22 00:35:11;;;;;;;16.58;3.10;;;7.30;99.90;;;;;;4998577;28;20046;-63
2022/01/22 00:37:39;;;;;;;19.13;3.10;;;7.30;99.90;;;;;;5003313;28;20083;-63
2022/01/22 00:40:06;;;;;;;15.95;2.72;;;7.30;99.90;;;;;;5029032;28;20067;-63
2022/01/22 00:42:33;;;;;;;20.40;3.05;;;7.30;99.90;;;;;;4963283;28;20072;-64
2022/01/22 00:44:59;;;;;;;10.63;2.38;;;7.30;99.90;;;;;;4996021;28;20055;-63
2022/01/22 00:47:25;;;;;;;23.85;3.00;;;7.30;99.90;;;;;;4996863;28;20050;-63
2022/01/22 00:49:51;;;;;;;20.10;2.83;;;7.30;99.90;;;;;;4995912;28;20048;-63
2022/01/22 00:52:16;;;;;;;18.15;3.33;;;7.30;99.90;;;;;;4973257;28;20657;-64
2022/01/22 00:54:42;;;;;;;25.38;4.70;;;7.20;99.90;;;;;;5000955;28;20161;-63
2022/01/22 00:57:08;;;;;;;23.13;3.38;;;7.20;99.90;;;;;;4987419;28;20038;-63
2022/01/22 00:59:35;;;;;;;29.00;3.78;;;7.20;99.90;;;;;;4999438;28;20037;-63
2022/01/22 01:02:02;;;;;;;25.52;2.90;;;7.20;99.90;;;;;;4995035;28;20511;-63
2022/01/22 01:04:28;;;;;;;25.10;4.10;;;7.20;99.90;;;;;;4995641;28;20167;-63
2022/01/22 01:06:54;;;;;;;19.67;3.53;;;7.20;99.90;;;;;;4998476;28;20049;-63
2022/01/22 01:09:20;;;;;;;21.25;2.90;;;7.10;99.90;;;;;;5014509;28;20035;-64
2022/01/22 01:11:51;;;;;;;21.15;3.47;;;7.10;99.90;;;;;;4993268;28;20420;-64
2022/01/22 01:14:25;;;;;;;28.33;3.50;;;7.10;99.90;;;;;;4992039;28;20045;-64
2022/01/22 01:33:37;;;;;;;14.63;2.40;;;7.10;99.90;;;;;;4990915;28;19924;-63
2022/01/22 01:36:05;;;;;;;14.20;2.00;;;7.10;99.90;;;;;;4995697;28;20065;-63
2022/01/22 01:38:35;;;;;;;7.18;2.33;;;7.10;99.90;;;;;;4996059;28;20050;-63
2022/01/22 01:41:09;;;;;;;10.93;2.20;;;7.10;99.90;;;;;;4997484;28;20061;-63
2022/01/22 01:43:36;;;;;;;;;;;7.10;99.90;;;;;;4988618;28;20041;-64
2022/01/22 01:46:02;;;;;;;10.90;1.83;;;7.10;99.90;;;;;;4979028;28;20256;-64
2022/01/22 01:48:32;;;;;;;20.17;2.67;;;7.10;99.90;;;;;;4976824;28;20049;-64
2022/01/22 01:50:59;;;;;;;19.58;1.90;;;7.10;99.90;;;;;;5064985;28;20088;-63
2022/01/22 01:56:04;;;;;;;12.40;2.00;;;7.10;99.90;;;;;;5013237;28;20244;-63
2022/01/22 01:58:31;;;;;;;15.70;2.85;;;7.10;99.90;;;;;;5000963;28;20490;-64
2022/01/22 02:01:01;;;;;;;15.73;2.60;;;7.10;99.90;;;;;;5006547;28;20048;-64
2022/01/22 02:03:27;;;;;;;15.93;2.45;;;7.10;99.90;;;;;;4978761;28;20144;-64
2022/01/22 02:05:56;;;;;;;12.15;2.03;;;7.10;99.90;;;;;;4991327;28;20687;-64
2022/01/22 02:08:22;;;;;;;17.75;4.32;;;7.10;99.90;;;;;;4991377;28;20067;-63
2022/01/22 02:10:56;;;;;;;12.70;2.00;;;7.10;99.90;;;;;;4982988;28;20493;-63
2022/01/22 02:24:18;;;;;;;11.77;2.45;;;7.10;99.90;;;;;;4996134;28;20046;-64
2022/01/22 02:26:49;;;;;;;15.95;2.08;;;7.10;99.90;;;;;;4975051;28;20045;-63
2022/01/22 02:29:15;;;;;;;16.77;2.22;;;7.10;99.90;;;;;;4991779;28;20638;-64
2022/01/22 02:31:50;;;;;;;11.82;1.70;;;7.10;99.90;;;;;;4999091;28;20045;-63
2022/01/22 02:34:28;;;;;;;12.07;2.13;;;7.10;99.90;;;;;;4987478;28;20099;-65
2022/01/22 02:37:01;;;;;;;17.25;2.00;;;7.10;99.90;;;;;;4975021;28;20038;-64
2022/01/22 02:39:41;;;;;;;10.75;2.40;;;7.10;99.90;;;;;;4995491;28;20507;-64
2022/01/22 02:42:07;;;;;;;11.05;2.80;;;7.10;99.90;;;;;;4987430;28;20045;-65
2022/01/22 02:44:35;;;;;;;10.48;1.75;;;7.10;99.90;;;;;;4993022;28;20063;-63
2022/01/22 02:47:05;;;;;;;9.98;1.98;;;7.10;99.90;;;;;;4971578;27;20091;-63
2022/01/22 02:49:30;;;;;;;9.77;1.65;;;7.10;99.90;;;;;;5003417;28;20033;-64
2022/01/22 02:52:03;;;;;;;9.98;1.95;;;7.10;99.90;;;;;;5066066;28;20044;-64
2022/01/22 02:54:29;;;;;;;12.98;3.15;;;7.10;99.90;;;;;;4992389;28;20041;-65
2022/01/22 02:56:55;;;;;;;17.13;2.95;;;7.10;99.90;;;;;;5002963;27;20048;-65
2022/01/22 02:59:22;;;;;;;11.15;2.20;;;7.10;99.90;;;;;;5050879;28;20033;-64
2022/01/22 03:01:52;;;;;;;9.00;1.70;;;7.10;99.90;;;;;;4991800;28;20057;-64
2022/01/22 03:04:18;;;;;;;13.98;1.70;;;7.10;99.90;;;;;;5048577;28;20414;-64
2022/01/22 03:06:46;;;;;;;12.73;1.98;;;7.10;99.90;;;;;;4997723;28;20049;-64
2022/01/22 03:09:14;;;;;;;11.70;1.98;;;7.10;99.90;;;;;;4990743;28;20531;-64
2022/01/22 03:20:32;;;;;;;11.75;1.67;;;7.00;99.90;;;;;;5015096;28;20056;-64
2022/01/22 03:23:07;;;;;;;13.60;1.83;;;7.00;99.90;;;;;;4997954;28;20163;-64
2022/01/22 03:28:21;;;;;;;13.48;2.58;;;7.00;99.90;;;;;;5001821;27;20046;-64
2022/01/22 03:30:47;;;;;;;16.75;3.28;;;7.00;99.90;;;;;;5014530;28;20041;-64
2022/01/22 03:33:14;;;;;;;7.65;1.48;;;7.00;99.90;;;;;;4993421;28;20045;-64
2022/01/22 03:35:45;;;;;;;7.85;1.45;;;7.00;99.90;;;;;;5009627;28;20077;-64
2022/01/22 03:38:10;;;;;;;12.80;1.88;;;7.00;99.90;;;;;;4995972;28;20045;-64
2022/01/22 03:40:36;;;;;;;8.20;1.88;;;7.00;99.90;;;;;;4967034;28;20042;-64
2022/01/22 03:43:02;;;;;;;10.32;1.60;;;7.00;99.90;;;;;;4999101;28;20049;-65
2022/01/22 03:45:28;;;;;;;8.63;1.30;;;7.00;99.90;;;;;;4997478;27;20052;-65
2022/01/22 03:47:53;;;;;;;7.85;1.73;;;7.00;99.90;;;;;;4981694;28;20042;-65
2022/01/22 03:50:20;;;;;;;10.73;1.52;;;7.00;99.90;;;;;;4996572;28;20040;-65
2022/01/22 03:52:47;;;;;;;12.23;1.75;;;7.00;99.90;;;;;;5006039;28;20046;-65
2022/01/22 03:55:29;;;;;;;10.07;1.85;;;7.00;99.90;;;;;;5004781;28;21679;-65
2022/01/22 03:57:55;;;;;;;10.07;1.58;;;7.00;99.90;;;;;;5002986;28;20065;-65
2022/01/22 04:00:21;;;;;;;9.77;2.92;;;7.00;99.90;;;;;;4981658;28;20739;-65
2022/01/22 04:05:32;;;;;;;9.18;2.00;;;7.00;99.90;;;;;;5003279;28;20038;-65
2022/01/22 04:08:13;;;;;;;7.15;1.90;;;7.00;99.90;;;;;;4991776;28;20050;-65
2022/01/22 04:10:39;;;;;;;12.40;3.35;;;7.00;99.90;;;;;;4987504;28;20041;-65
2022/01/22 04:13:09;;;;;;;9.75;1.85;;;7.00;99.90;;;;;;4998178;28;20048;-64
2022/01/22 04:15:38;;;;;;;10.18;2.45;;;6.90;99.90;;;;;;5009319;28;20087;-64
2022/01/22 04:26:38;;;;;;;11.70;2.20;;;6.90;99.90;;;;;;4984538;28;19929;-64
2022/01/22 04:29:04;;;;;;;7.43;1.65;;;6.80;99.90;;;;;;5030418;22;20511;-63
2022/01/22 04:31:30;;;;;;;13.93;2.38;;;6.90;99.90;;;;;;4977873;28;20038;-62
2022/01/22 04:33:56;;;;;;;13.80;1.70;;;6.90;99.90;;;;;;4973893;28;20044;-63
2022/01/22 04:36:21;;;;;;;8.43;1.70;;;6.90;99.90;;;;;;4995492;28;20388;-61
2022/01/22 04:38:47;;;;;;;12.88;2.03;;;6.90;99.90;;;;;;4963457;28;20481;-62
2022/01/22 04:41:13;;;;;;;11.05;1.80;;;6.90;99.90;;;;;;4974905;28;20050;-62
2022/01/22 04:43:41;;;;;;;9.30;1.85;;;6.90;99.90;;;;;;4991169;28;20121;-64
2022/01/22 04:56:49;;;;;;;16.85;1.73;;;6.90;99.90;;;;;;4990011;28;20049;-63
2022/01/22 04:59:15;;;;;;;10.70;1.58;;;6.90;99.90;;;;;;4975735;28;20520;-64
2022/01/22 05:01:41;;;;;;;5.97;1.30;;;6.90;99.90;;;;;;4984996;28;20049;-63
2022/01/22 05:04:07;;;;;;;11.63;2.33;;;6.90;99.90;;;;;;4990389;28;20038;-62
2022/01/22 05:06:33;;;;;;;5.90;1.10;;;6.90;99.90;;;;;;4986907;28;20372;-63
2022/01/22 05:09:00;;;;;;;5.75;1.15;;;6.80;99.90;;;;;;4990194;28;20384;-62
2022/01/22 05:11:25;;;;;;;3.80;1.35;;;6.80;99.90;;;;;;4977140;28;20091;-63
2022/01/22 05:13:52;;;;;;;5.72;1.50;;;6.80;99.90;;;;;;4991697;28;20045;-62
2022/01/22 05:16:18;;;;;;;6.18;1.50;;;6.80;99.90;;;;;;4975123;28;20068;-63
2022/01/22 05:19:08;;;;;;;12.93;1.80;;;6.80;99.90;;;;;;4973190;28;20107;-63
2022/01/22 05:21:35;;;;;;;8.90;1.80;;;6.80;99.90;;;;;;4995190;28;20049;-63
2022/01/22 05:24:05;;;;;;;8.13;2.05;;;6.80;99.90;;;;;;4973950;28;20037;-63
2022/01/22 05:29:56;;;;;;;12.90;2.30;;;6.90;99.90;;;;;;4996529;28;20042;-62
2022/01/22 05:37:05;;;;;;;12.23;2.60;;;6.80;99.90;;;;;;4989863;28;20045;-63
2022/01/22 05:39:33;;;;;;;11.88;2.25;;;6.80;99.90;;;;;;5009512;28;20129;-62
2022/01/22 05:42:01;;;;;;;12.15;1.92;;;6.80;99.90;;;;;;4983657;28;20094;-62
2022/01/22 05:44:31;;;;;;;13.45;1.95;;;6.80;99.90;;;;;;4997135;28;20042;-63
2022/01/22 05:46:59;;;;;;;9.20;2.10;;;6.80;99.90;;;;;;4984143;28;20107;-63
2022/01/22 05:49:27;;;;;;;10.65;1.80;;;6.80;99.90;;;;;;4989402;28;20121;-63
2022/01/22 05:51:55;;;;;;;7.03;1.48;;;6.80;99.90;;;;;;4986827;28;20037;-63
2022/01/22 05:59:53;;;;;;;6.13;1.50;;;6.70;99.90;;;;;;4919094;28;20051;-63
2022/01/22 06:02:19;;;;;;;12.45;1.73;;;6.60;99.90;;;;;;4983295;28;20042;-63
2022/01/22 06:04:45;;;;;;;13.32;1.52;;;6.60;99.90;;;;;;4964249;28;20125;-63
2022/01/22 06:07:12;;;;;;;12.38;1.88;;;6.60;99.90;;;;;;4989468;28;20045;-62
2022/01/22 06:09:51;;;;;;;10.52;2.53;;;6.60;99.90;;;;;;5000908;28;20038;-63
2022/01/22 06:12:27;;;;;;;13.43;1.60;;;6.50;99.90;;;;;;4989031;28;20443;-61
2022/01/22 06:14:53;;;;;;;12.88;1.90;;;6.60;99.90;;;;;;4988561;28;20045;-63
2022/01/22 06:17:19;;;;;;;13.13;1.73;;;6.60;99.90;;;;;;4989416;28;20072;-62
2022/01/22 06:19:44;;;;;;;13.27;2.28;;;6.50;99.90;;;;;;4993955;28;20195;-63
2022/01/22 06:22:10;;;;;;;10.32;2.40;;;6.60;99.90;;;;;;4976935;28;20076;-63
2022/01/22 06:24:36;;;;;;;8.52;1.88;;;6.50;99.90;;;;;;5002038;28;20041;-63
2022/01/22 06:27:02;;;;;;;11.90;2.83;;;6.50;99.90;;;;;;5031541;28;20050;-62
2022/01/22 06:29:27;;;;;;;8.32;1.60;;;6.50;99.90;;;;;;4989499;28;20044;-63
2022/01/22 06:31:53;;;;;;;10.45;2.30;;;6.50;99.90;;;;;;4978410;28;20074;-63
2022/01/22 06:34:19;;;;;;;7.95;1.08;;;6.50;99.90;;;;;;4992235;28;20395;-62
2022/01/22 06:36:45;;;;;;;9.73;1.60;;;6.50;99.90;;;;;;4978613;28;20061;-63
2022/01/22 06:39:13;;;;;;;3.45;0.88;;;6.40;99.90;;;;;;4974861;28;20042;-61
2022/01/22 06:41:46;;;;;;;4.85;1.00;;;6.40;99.90;;;;;;4990557;28;20045;-62
2022/01/22 06:44:21;;;;;;;6.90;1.23;;;6.40;99.90;;;;;;5007077;28;20124;-63
2022/01/22 06:46:51;;;;;;;4.35;1.42;;;6.40;99.90;;;;;;5008919;28;20037;-63
2022/01/22 06:49:17;;;;;;;4.22;1.08;;;6.40;99.90;;;;;;5032807;28;20556;-63
2022/01/22 06:51:43;;;;;;;6.85;1.40;;;6.40;99.90;;;;;;4992142;28;20037;-63
2022/01/22 06:54:12;;;;;;;8.93;1.13;;;6.40;99.90;;;;;;4992397;28;20538;-62
2022/01/22 06:56:38;;;;;;;5.65;1.63;;;6.40;99.90;;;;;;4975334;28;20062;-63
2022/01/22 06:59:06;;;;;;;6.57;1.10;;;6.40;99.90;;;;;;4989063;28;20045;-64
2022/01/22 07:01:32;;;;;;;12.90;1.58;;;6.40;99.90;;;;;;5030749;28;20048;-63
2022/01/22 07:03:58;;;;;;;7.93;1.60;;;6.40;99.90;;;;;;5002583;28;20056;-63
2022/01/22 07:06:24;;;;;;;13.30;1.52;;;6.50;99.90;;;;;;4991651;28;20408;-64
2022/01/22 07:08:50;;;;;;;9.90;1.50;;;6.40;99.90;;;;;;4989946;28;20038;-63
2022/01/22 07:11:16;;;;;;;10.15;1.40;;;6.40;99.90;;;;;;4999444;28;20164;-63
2022/01/22 07:13:43;;;;;;;12.75;1.77;;;6.50;99.90;;;;;;4974894;28;20047;-63
2022/01/22 07:16:09;;;;;;;15.80;3.20;;;6.50;99.90;;;;;;4989568;28;20038;-63
2022/01/22 07:18:34;;;;;;;11.48;2.08;;;6.50;99.90;;;;;;4977671;28;20053;-63
2022/01/22 07:21:14;;;;;;;8.23;1.58;;;6.50;99.90;;;;;;4994816;28;20504;-63
2022/01/22 07:24:22;;;;;;;6.28;1.95;;;6.50;99.90;;;;;;4975912;28;20042;-62
2022/01/22 07:26:25;;;;;;;14.82;1.60;;;6.50;99.90;;;;;;4983012;28;20080;-63
2022/01/22 07:28:51;;;;;;;8.43;1.88;;;6.50;99.90;;;;;;4998448;28;20038;-63
2022/01/22 07:31:20;;;;;;;10.90;2.05;;;6.50;99.90;;;;;;4980475;28;20491;-63
2022/01/22 07:33:47;;;;;;;10.02;2.20;;;6.50;99.90;;;;;;4974998;28;20034;-62
2022/01/22 07:36:12;;;;;;;16.02;2.30;;;6.50;99.90;;;;;;4981188;28;20079;-63
2022/01/22 07:38:39;;;;;;;15.13;2.10;;;6.50;99.90;;;;;;4987764;28;20046;-63
2022/01/22 07:41:09;;;;;;;17.92;4.13;;;6.50;99.90;;;;;;4976033;28;20521;-63
2022/01/22 07:43:35;;;;;;;10.88;2.30;;;6.60;99.90;;;;;;5000414;28;20038;-62
2022/01/22 07:46:02;;;;;;;7.88;2.30;;;6.60;99.90;;;;;;4967976;28;20053;-63
2022/01/22 07:48:28;;;;;;;11.45;2.70;;;6.50;99.90;;;;;;5008673;28;20179;-63
2022/01/22 07:50:53;;;;;;;16.42;2.20;;;6.50;99.90;;;;;;4975204;28;20539;-63
2022/01/22 07:53:19;;;;;;;16.45;3.20;;;6.50;99.90;;;;;;4990058;28;20044;-62
2022/01/22 07:55:45;;;;;;;12.77;2.75;;;6.60;99.90;;;;;;4982805;28;20049;-64
2022/01/22 07:58:11;;;;;;;13.73;2.90;;;6.50;99.90;;;;;;4991151;28;20508;-63
2022/01/22 08:00:38;;;;;;;12.07;2.50;;;6.50;99.90;;;;;;4957359;28;20049;-63
2022/01/22 08:03:06;;;;;;;11.65;2.85;;;6.60;99.90;;;;;;4975254;28;20048;-63
2022/01/22 08:05:32;;;;;;;14.93;2.88;;;6.60;99.90;;;;;;5012952;28;20398;-63
2022/01/22 08:07:57;;;;;;;15.45;2.55;;;6.60;99.90;;;;;;4988054;28;20037;-63
2022/01/22 08:10:23;;;;;;;11.82;2.55;;;6.70;99.90;;;;;;4987174;28;20038;-62
2022/01/22 08:12:50;;;;;;;14.05;3.67;;;6.70;99.90;;;;;;4998601;28;20042;-62
2022/01/22 08:15:16;;;;;;;12.48;2.80;;;6.70;99.90;;;;;;4977310;28;20491;-63
2022/01/22 08:17:43;;;;;;;16.48;2.55;;;6.70;99.90;;;;;;4993930;28;20072;-63
2022/01/22 08:20:14;;;;;;;15.25;2.92;;;6.60;99.90;;;;;;4985747;28;20085;-63
2022/01/22 08:22:40;;;;;;;17.48;2.22;;;6.70;99.90;;;;;;4989778;28;20065;-63
2022/01/22 08:25:06;;;;;;;13.57;2.20;;;6.70;99.90;;;;;;4976723;28;20057;-63
2022/01/22 08:27:39;;;;;;;9.95;2.10;;;6.70;99.90;;;;;;4983819;28;20042;-64
2022/01/22 08:30:08;;;;;;;11.03;2.10;;;6.70;99.90;;;;;;4988921;28;20113;-64
2022/01/22 08:37:50;;;;;;;9.00;1.90;;;6.80;99.90;;;;;;4987847;28;20045;-64
2022/01/22 08:40:16;;;;;;;9.20;2.20;;;6.80;99.90;;;;;;4987067;28;20329;-63
2022/01/22 08:42:44;;;;;;;15.23;3.90;;;6.80;99.90;;;;;;4983890;28;20050;-64
2022/01/22 08:45:10;;;;;;;14.10;4.10;;;6.70;99.90;;;;;;4970589;28;20392;-63
2022/01/22 08:47:36;;;;;;;11.60;3.08;;;6.80;99.90;;;;;;5023247;28;20042;-62
2022/01/22 08:50:04;;;;;;;17.25;3.03;;;6.80;99.90;;;;;;4970714;28;20049;-64
2022/01/22 08:52:33;;;;;;;18.83;4.75;;;6.80;99.90;;;;;;4985063;28;20084;-63
2022/01/22 08:54:59;;;;;;;16.77;4.70;;;6.80;99.90;;;;;;4976463;28;20033;-61
2022/01/22 08:57:25;;;;;;;19.35;6.40;;;6.80;99.90;;;;;;4979962;28;20563;-63
2022/01/22 08:59:51;;;;;;;19.40;6.57;;;6.80;99.90;;;;;;4986661;28;20094;-63
2022/01/22 09:02:17;;;;;;;15.63;5.97;;;6.80;99.90;;;;;;4987508;28;20041;-64
2022/01/22 09:04:43;;;;;;;26.27;6.03;;;6.80;99.90;;;;;;4977641;28;20049;-63
2022/01/22 09:07:09;;;;;;;21.95;5.13;;;6.80;99.90;;;;;;4992337;28;20609;-63
2022/01/22 09:09:36;;;;;;;16.40;4.32;;;6.90;99.90;;;;;;4990660;28;20041;-65
2022/01/22 09:12:03;;;;;;;19.30;3.42;;;6.90;99.90;;;;;;4994240;28;20046;-63
2022/01/22 09:14:29;;;;;;;13.05;3.03;;;6.90;99.90;;;;;;4991123;28;20126;-63
2022/01/22 09:16:58;;;;;;;13.10;2.35;;;7.00;99.90;;;;;;4973627;28;20517;-63
2022/01/22 09:19:31;;;;;;;11.93;3.10;;;7.00;99.90;;;;;;4998845;28;20499;-63
2022/01/22 09:21:57;;;;;;;7.13;2.47;;;7.00;99.90;;;;;;4968818;28;20069;-63
2022/01/22 09:24:23;;;;;;;13.40;4.72;;;7.10;99.90;;;;;;4973558;28;20038;-63
2022/01/22 09:26:50;;;;;;;9.23;2.70;;;7.10;99.90;;;;;;4973466;28;20042;-62
2022/01/22 09:29:16;;;;;;;10.85;2.33;;;7.10;99.90;;;;;;4974683;28;20537;-62
2022/01/22 09:31:42;;;;;;;15.55;3.95;;;7.10;99.90;;;;;;4990531;28;20045;-62
2022/01/22 09:34:09;;;;;;;27.55;13.00;;;7.20;99.90;;;;;;4974490;28;20120;-63
2022/01/22 09:36:35;;;;;;;12.85;4.82;;;7.20;99.90;;;;;;4990588;28;20449;-62
2022/01/22 09:39:03;;;;;;;7.65;2.58;;;7.20;99.90;;;;;;4990391;28;20090;-63
2022/01/22 09:41:29;;;;;;;21.88;6.15;;;7.20;99.90;;;;;;4990308;28;20052;-63
2022/01/22 09:43:55;;;;;;;10.75;3.33;;;7.20;99.90;;;;;;4989852;28;20049;-63
2022/01/22 09:46:22;;;;;;;12.98;4.72;;;7.20;99.90;;;;;;4990095;28;20046;-63
2022/01/22 09:48:50;;;;;;;11.48;4.15;;;7.20;99.90;;;;;;4990068;28;20046;-62
2022/01/22 09:51:16;;;;;;;13.93;4.63;;;7.30;99.90;;;;;;4990042;28;20085;-63
2022/01/22 09:53:43;;;;;;;10.07;4.15;;;7.30;99.90;;;;;;4974721;28;20041;-64
2022/01/22 09:56:10;;;;;;;14.50;4.78;;;7.30;99.90;;;;;;4977893;28;20511;-62
2022/01/22 09:58:36;;;;;;;10.48;3.70;;;7.30;99.90;;;;;;4993868;28;20060;-63
2022/01/22 10:01:25;;;;;;;12.93;4.97;;;7.20;99.90;;;;;;4982976;28;20157;-63
2022/01/22 10:03:53;;;;;;;13.10;3.97;;;7.30;99.90;;;;;;4993861;28;20232;-63
2022/01/22 10:06:22;;;;;;;18.27;5.22;;;7.30;99.90;;;;;;4993483;28;20106;-62
2022/01/22 10:08:48;;;;;;;18.10;4.65;;;7.30;99.90;;;;;;4996626;28;20083;-62
2022/01/22 10:11:23;;;;;;;12.57;3.67;;;7.30;99.90;;;;;;4998343;28;20078;-62
2022/01/22 10:13:56;;;;;;;19.77;4.45;;;7.30;99.90;;;;;;4980515;28;20041;-63
2022/01/22 10:16:28;;;;;;;12.27;4.18;;;7.30;99.90;;;;;;5050270;28;20067;-63
2022/01/22 10:19:21;;;;;;;15.23;4.18;;;7.30;99.90;;;;;;4985627;28;20057;-63
2022/01/22 10:21:57;;;;;;;26.98;5.53;;;7.30;99.90;;;;;;4992872;28;20584;-62
2022/01/22 10:24:45;;;;;;;12.32;3.78;;;7.30;99.90;;;;;;4992862;28;20077;-61
2022/01/22 10:27:35;;;;;;;17.90;6.75;;;7.30;99.90;;;;;;4992888;28;20098;-63
2022/01/22 10:30:15;;;;;;;30.73;7.65;;;7.30;99.90;;;;;;4976861;28;20045;-62
2022/01/22 10:34:03;;;;;;;21.23;11.70;;;7.30;99.90;;;;;;5029295;22;20037;-85
2022/01/22 10:43:55;;;;;;;21.38;9.02;;;7.30;99.90;;;;;;5003574;22;20411;-60
2022/01/22 10:49:10;;;;;;;19.10;7.88;;;7.30;99.90;;;;;;4999282;28;20196;-61
2022/01/22 10:51:46;;;;;;;26.85;10.25;;;7.30;99.90;;;;;;4987134;28;20046;-60
2022/01/22 10:54:13;;;;;;;20.05;9.65;;;7.30;99.90;;;;;;4999200;28;20086;-60
2022/01/22 10:56:40;;;;;;;22.77;7.80;;;7.30;99.90;;;;;;5003368;28;20065;-61
2022/01/22 10:59:10;;;;;;;21.60;8.10;;;7.30;99.90;;;;;;4995461;28;20046;-60
2022/01/22 11:01:55;;;;;;;24.55;8.35;;;7.30;99.90;;;;;;4982642;28;20053;-60
2022/01/22 11:04:25;;;;;;;25.50;7.35;;;7.30;99.90;;;;;;4980027;28;20050;-63
2022/01/22 11:06:57;;;;;;;27.90;12.73;;;7.40;99.90;;;;;;4986873;28;20042;-63
2022/01/22 11:09:26;;;;;;;25.70;13.55;;;7.40;99.90;;;;;;4975056;28;20046;-61
2022/01/22 11:11:52;;;;;;;15.27;5.57;;;7.40;99.90;;;;;;4977142;28;20166;-61
2022/01/22 11:14:19;;;;;;;22.65;9.60;;;7.30;99.90;;;;;;5002618;28;20045;-60
2022/01/22 11:16:47;;;;;;;13.43;4.32;;;7.40;99.90;;;;;;4994997;28;20677;-62
2022/01/22 11:19:20;;;;;;;15.32;4.28;;;7.40;99.90;;;;;;5003843;28;20446;-62
2022/01/22 11:21:52;;;;;;;15.32;4.10;;;7.40;99.90;;;;;;4990303;28;20038;-60
2022/01/22 11:24:20;;;;;;;21.63;7.10;;;7.40;99.90;;;;;;5000797;28;20073;-60
2022/01/22 11:26:50;;;;;;;19.60;8.20;;;7.40;99.90;;;;;;4968652;28;20038;-60
2022/01/22 11:29:17;;;;;;;19.10;6.68;;;7.40;99.90;;;;;;4981083;28;20169;-61
2022/01/22 11:31:49;;;;;;;22.33;8.63;;;7.40;99.90;;;;;;4963360;28;20053;-62
2022/01/22 11:34:17;;;;;;;12.02;4.50;;;7.50;99.90;;;;;;4961946;28;20106;-60
2022/01/22 11:36:59;;;;;;;13.25;3.00;;;7.50;99.90;;;;;;4990356;28;20076;-61
2022/01/22 11:39:26;;;;;;;14.32;4.05;;;7.50;99.90;;;;;;4992689;28;20065;-62
2022/01/22 11:41:59;;;;;;;15.32;4.68;;;7.50;99.90;;;;;;4967136;28;20178;-59
2022/01/22 11:44:50;;;;;;;11.38;2.78;;;7.50;99.90;;;;;;4999320;28;20041;-60
2022/01/22 11:47:20;;;;;;;9.05;2.88;;;7.60;99.90;;;;;;4989720;28;20046;-59
2022/01/22 11:50:09;;;;;;;10.98;2.95;;;7.50;99.90;;;;;;5001396;28;20154;-59
2022/01/22 11:52:40;;;;;;;9.98;2.80;;;7.50;99.90;;;;;;4997068;28;20167;-58
2022/01/22 11:55:14;;;;;;;10.32;2.42;;;7.50;99.90;;;;;;4974118;28;20059;-59
2022/01/22 11:57:42;;;;;;;12.13;2.78;;;7.50;99.90;;;;;;4978032;28;20057;-61
2022/01/22 12:00:14;;;;;;;4.93;2.22;;;7.50;99.90;;;;;;5018466;28;20466;-61
2022/01/22 12:02:40;;;;;;;8.93;2.70;;;7.50;99.90;;;;;;4994623;28;20046;-60
2022/01/22 12:05:07;;;;;;;10.93;3.15;;;7.50;99.90;;;;;;4997032;28;20038;-59
2022/01/22 12:07:35;;;;;;;10.70;2.40;;;7.50;99.90;;;;;;4996703;28;20046;-61
2022/01/22 12:10:20;;;;;;;12.70;4.70;;;7.50;99.90;;;;;;4999821;28;20026;-61
2022/01/22 12:15:32;;;;;;;9.68;3.25;;;7.50;99.90;;;;;;4987642;28;19921;-60
2022/01/22 12:18:04;;;;;;;13.57;4.57;;;7.50;99.90;;;;;;4989554;28;20041;-59
2022/01/22 12:23:06;;;;;;;15.98;6.97;;;7.60;99.90;;;;;;4976105;28;20133;-60
2022/01/22 12:25:35;;;;;;;13.48;5.00;;;7.50;99.90;;;;;;4997123;28;20033;-60
2022/01/22 12:28:02;;;;;;;12.95;5.32;;;7.50;99.90;;;;;;4999328;28;20038;-58
2022/01/22 12:30:47;;;;;;;10.18;4.03;;;7.50;99.90;;;;;;4982615;28;20046;-60
2022/01/22 12:33:30;;;;;;;11.88;2.67;;;7.50;99.90;;;;;;5003974;28;20069;-60
2022/01/22 12:36:04;;;;;;;8.27;1.98;;;7.50;99.90;;;;;;4995148;28;20073;-60
2022/01/22 12:44:06;;;;;;;8.25;1.80;;;7.50;99.90;;;;;;5000042;28;20462;-58
2022/01/22 12:46:34;;;;;;;9.63;1.50;;;7.50;99.90;;;;;;4993071;28;20042;-61
2022/01/22 12:49:04;;;;;;;10.30;2.03;;;7.50;99.90;;;;;;5008676;28;20033;-59
2022/01/22 12:51:31;;;;;;;8.80;2.03;;;7.50;99.90;;;;;;4995738;28;20041;-58
2022/01/22 12:53:57;;;;;;;11.55;1.83;;;7.50;99.90;;;;;;4980454;28;20049;-59
2022/01/22 12:59:08;;;;;;;8.32;2.00;;;7.40;99.90;;;;;;4992678;28;20054;-60
2022/01/22 13:01:42;;;;;;;12.13;2.33;;;7.40;99.90;;;;;;4996350;28;20056;-60
2022/01/22 13:04:09;;;;;;;11.35;1.42;;;7.50;99.90;;;;;;4969094;28;20060;-60
2022/01/22 13:06:45;;;;;;;6.22;1.50;;;7.50;99.90;;;;;;4995202;28;20034;-61
2022/01/22 13:09:13;;;;;;;4.85;1.23;;;7.50;99.90;;;;;;4996923;28;20540;-59
2022/01/22 13:11:48;;;;;;;12.45;1.48;;;7.50;99.90;;;;;;4985608;28;20120;-58
2022/01/22 13:14:26;;;;;;;7.28;2.72;;;7.50;99.90;;;;;;4989239;28;20503;-59
2022/01/22 13:16:54;;;;;;;12.27;4.97;;;7.60;99.90;;;;;;5001459;28;20384;-60
2022/01/22 13:19:21;;;;;;;7.57;1.75;;;7.50;99.90;;;;;;4991614;28;20121;-60
2022/01/22 13:21:57;;;;;;;11.40;3.20;;;7.50;99.90;;;;;;4998851;28;20045;-60
2022/01/22 13:24:25;;;;;;;6.57;1.92;;;7.50;99.90;;;;;;4989977;28;20046;-60
2022/01/22 13:29:30;;;;;;;5.80;1.83;;;7.40;99.90;;;;;;4994280;28;20128;-60
2022/01/22 13:32:20;;;;;;;10.18;1.90;;;7.40;99.90;;;;;;4993026;28;20072;-59
2022/01/22 13:35:05;;;;;;;4.88;1.40;;;7.40;99.90;;;;;;4993872;28;20496;-60
2022/01/22 13:38:51;;;;;;;11.30;3.20;;;7.30;99.90;;;;;;4999173;28;20034;-60
2022/01/22 13:49:04;;;;;;;6.90;1.70;;;7.20;99.90;;;;;;4992440;28;20054;-60
2022/01/22 13:51:31;;;;;;;10.40;2.00;;;7.20;99.90;;;;;;4978011;28;20487;-61
2022/01/22 13:53:59;;;;;;;11.90;2.90;;;7.20;99.90;;;;;;4980924;28;20117;-60
2022/01/22 13:56:47;;;;;;;8.70;1.98;;;7.20;99.90;;;;;;4981624;28;20057;-61
2022/01/22 13:59:17;;;;;;;8.90;1.60;;;7.20;99.90;;;;;;4998543;28;20164;-61
2022/01/22 14:04:50;;;;;;;10.45;2.33;;;7.10;99.90;;;;;;4997615;28;20075;-61
2022/01/22 14:07:46;;;;;;;9.02;1.83;;;7.10;99.90;;;;;;4970433;28;20057;-59
2022/01/22 14:10:12;;;;;;;11.50;2.38;;;7.10;99.90;;;;;;4967628;28;20114;-59
2022/01/22 14:12:47;;;;;;;12.10;1.60;;;7.10;99.90;;;;;;4998932;28;20042;-60
2022/01/22 14:15:28;;;;;;;7.05;1.40;;;7.20;99.90;;;;;;5006247;28;20033;-61
2022/01/22 14:20:57;;;;;;;7.47;1.63;;;7.20;99.90;;;;;;4983494;28;20091;-61
2022/01/22 14:23:22;;;;;;;10.65;1.75;;;7.10;99.90;;;;;;4993416;28;20076;-61
2022/01/22 14:26:29;;;;;;;12.00;1.60;;;7.10;99.90;;;;;;5008765;28;20046;-61
2022/01/22 14:29:06;;;;;;;12.07;2.95;;;7.10;99.90;;;;;;4969716;28;20632;-61
2022/01/22 14:31:51;;;;;;;9.38;3.80;;;7.00;99.90;;;;;;4974970;28;20045;-59
2022/01/22 14:34:38;;;;;;;15.52;4.15;;;7.00;99.90;;;;;;4989844;28;20388;-61
2022/01/22 14:37:06;;;;;;;11.68;3.92;;;6.90;99.90;;;;;;4993918;28;20121;-61
2022/01/22 14:45:22;;;;;;;13.57;3.70;;;6.80;99.90;;;;;;4997249;28;20844;-60
2022/01/22 14:47:54;;;;;;;13.50;5.50;;;6.70;99.90;;;;;;5000466;28;20255;-61
2022/01/22 14:50:20;;;;;;;10.68;3.58;;;6.70;99.90;;;;;;4982516;28;20049;-61
2022/01/22 14:52:47;;;;;;;10.23;4.15;;;6.70;99.90;;;;;;4983359;28;20042;-61
2022/01/22 14:55:14;;;;;;;11.25;2.60;;;6.70;99.90;;;;;;4981981;28;20279;-60
2022/01/22 14:57:43;;;;;;;10.25;3.88;;;6.70;99.90;;;;;;4997828;28;20050;-61
2022/01/22 15:00:14;;;;;;;8.52;3.67;;;6.70;99.90;;;;;;4980309;28;20038;-61
2022/01/22 15:02:40;;;;;;;8.77;2.05;;;6.70;99.90;;;;;;5016460;28;20049;-60
2022/01/22 15:05:08;;;;;;;14.63;6.80;;;6.70;99.90;;;;;;4996546;28;20049;-60
2022/01/22 15:07:34;;;;;;;17.60;10.23;;;6.70;99.90;;;;;;4996924;28;20046;-60
2022/01/22 15:10:00;;;;;;;21.50;11.60;;;6.70;99.90;;;;;;4991500;28;20038;-60
2022/01/22 15:12:26;;;;;;;22.23;11.38;;;6.60;99.90;;;;;;4992839;28;20049;-61
2022/01/22 15:14:53;;;;;;;13.85;6.22;;;6.60;99.90;;;;;;4993040;28;20386;-61